sensor_id;sensor_type;location;lat;lon;timestamp;pressure;altitude;pressure_sealevel;temperature;humidity
11878;BME280;5998;42.676;23.268;2023-02-18T00:01:23;95550.00;;;3.44;100.00
11878;BME280;5998;42.676;23.268;2023-02-18T00:03:50;95560.66;;;3.44;100.00
11878;BME280;5998;42.676;23.268;2023-02-18T00:06:21;95542.34;;;3.37;100.00
11878;BME280;5998;42.676;23.268;2023-02-18T00:08:48;95546.28;;;3.45;100.00
11878;BME280;5998;42.676;23.268;2023-02-18T00:11:16;95549.50;;;3.42;100.00
11878;BME280;5998;42.676;23.268;2023-02-18T00:13:43;95539.13;;;3.35;100.00
11878;BME280;5998;42.676;23.268;2023-02-18T00:16:14;95538.00;;;3.03;100.00
11878;BME280;5998;42.676;23.268;2023-02-18T00:18:41;95543.03;;;3.09;100.00
11878;BME280;5998;42.676;23.268;2023-02-18T00:21:08;95527.94;;;2.94;100.00
11878;BME280;5998;42.676;23.268;2023-02-18T00:23:36;95515.66;;;3.04;100.00
11878;BME280;5998;42.676;23.268;2023-02-18T00:26:04;95519.03;;;3.19;100.00
11878;BME280;5998;42.676;23.268;2023-02-18T00:28:32;95507.56;;;3.19;100.00
11878;BME280;5998;42.676;23.268;2023-02-18T00:30:59;95527.19;;;2.84;100.00
11878;BME280;5998;42.676;23.268;2023-02-18T00:33:25;95526.59;;;3.02;100.00
11878;BME280;5998;42.676;23.268;2023-02-18T00:35:52;95515.94;;;3.02;100.00
11878;BME280;5998;42.676;23.268;2023-02-18T00:38:26;95493.03;;;3.06;100.00
11878;BME280;5998;42.676;23.268;2023-02-18T00:40:54;95507.66;;;3.09;100.00
11878;BME280;5998;42.676;23.268;2023-02-18T00:43:21;95486.19;;;2.95;100.00
11878;BME280;5998;42.676;23.268;2023-02-18T00:45:48;95497.03;;;3.04;100.00
11878;BME280;5998;42.676;23.268;2023-02-18T00:48:14;95508.19;;;3.06;100.00
11878;BME280;5998;42.676;23.268;2023-02-18T00:50:41;95500.28;;;2.95;100.00
11878;BME280;5998;42.676;23.268;2023-02-18T00:53:08;95495.22;;;2.99;100.00
11878;BME280;5998;42.676;23.268;2023-02-18T00:55:38;95509.56;;;2.98;100.00
11878;BME280;5998;42.676;23.268;2023-02-18T00:58:06;95495.19;;;3.04;100.00
11878;BME280;5998;42.676;23.268;2023-02-18T01:00:33;95502.28;;;3.14;100.00
11878;BME280;5998;42.676;23.268;2023-02-18T01:03:00;95504.38;;;3.22;100.00
11878;BME280;5998;42.676;23.268;2023-02-18T01:05:26;95492.22;;;3.06;100.00
11878;BME280;5998;42.676;23.268;2023-02-18T01:07:53;95513.25;;;3.07;100.00
11878;BME280;5998;42.676;23.268;2023-02-18T01:10:20;95501.53;;;3.08;100.00
11878;BME280;5998;42.676;23.268;2023-02-18T01:12:47;95495.34;;;3.18;100.00
11878;BME280;5998;42.676;23.268;2023-02-18T01:15:16;95476.03;;;3.02;100.00
11878;BME280;5998;42.676;23.268;2023-02-18T01:17:43;95488.09;;;3.28;100.00
11878;BME280;5998;42.676;23.268;2023-02-18T01:20:11;95499.19;;;3.02;100.00
11878;BME280;5998;42.676;23.268;2023-02-18T01:22:38;95482.25;;;2.87;100.00
11878;BME280;5998;42.676;23.268;2023-02-18T01:25:06;95492.31;;;2.95;100.00
11878;BME280;5998;42.676;23.268;2023-02-18T01:27:32;95482.53;;;2.81;100.00
11878;BME280;5998;42.676;23.268;2023-02-18T01:29:59;95486.97;;;2.95;100.00
11878;BME280;5998;42.676;23.268;2023-02-18T01:32:27;95490.47;;;2.91;100.00
11878;BME280;5998;42.676;23.268;2023-02-18T01:34:54;95497.56;;;3.06;100.00
11878;BME280;5998;42.676;23.268;2023-02-18T01:37:20;95483.19;;;3.07;100.00
11878;BME280;5998;42.676;23.268;2023-02-18T01:39:47;95492.22;;;3.06;100.00
11878;BME280;5998;42.676;23.268;2023-02-18T01:42:18;95485.56;;;3.08;100.00
11878;BME280;5998;42.676;23.268;2023-02-18T01:44:46;95487.09;;;3.19;100.00
11878;BME280;5998;42.676;23.268;2023-02-18T01:47:13;95483.16;;;3.12;100.00
11878;BME280;5998;42.676;23.268;2023-02-18T01:49:42;95495.59;;;3.21;100.00
11878;BME280;5998;42.676;23.268;2023-02-18T01:52:13;95483.88;;;3.22;100.00
11878;BME280;5998;42.676;23.268;2023-02-18T01:54:43;95457.69;;;3.01;100.00
11878;BME280;5998;42.676;23.268;2023-02-18T01:57:13;95497.44;;;3.26;100.00
11878;BME280;5998;42.676;23.268;2023-02-18T01:59:42;95511.25;;;3.28;100.00
11878;BME280;5998;42.676;23.268;2023-02-18T02:02:11;95508.53;;;3.33;100.00
11878;BME280;5998;42.676;23.268;2023-02-18T02:04:40;95487.38;;;3.18;100.00
11878;BME280;5998;42.676;23.268;2023-02-18T02:07:08;95509.38;;;3.28;100.00
11878;BME280;5998;42.676;23.268;2023-02-18T02:09:35;95509.94;;;3.25;100.00
11878;BME280;5998;42.676;23.268;2023-02-18T02:12:27;95501.94;;;3.25;100.00
11878;BME280;5998;42.676;23.268;2023-02-18T02:15:21;95497.97;;;3.23;100.00
11878;BME280;5998;42.676;23.268;2023-02-18T02:18:01;95489.53;;;3.16;100.00
11878;BME280;5998;42.676;23.268;2023-02-18T02:21:11;95502.63;;;3.07;100.00
11878;BME280;5998;42.676;23.268;2023-02-18T02:24:11;95486.16;;;3.00;100.00
11878;BME280;5998;42.676;23.268;2023-02-18T02:33:14;95489.47;;;2.77;100.00
11878;BME280;5998;42.676;23.268;2023-02-18T02:35:51;95474.59;;;2.76;100.00
11878;BME280;5998;42.676;23.268;2023-02-18T02:38:23;95478.16;;;2.51;100.00
11878;BME280;5998;42.676;23.268;2023-02-18T02:40:55;95496.44;;;2.68;100.00
11878;BME280;5998;42.676;23.268;2023-02-18T02:43:30;95478.72;;;2.43;100.00
11878;BME280;5998;42.676;23.268;2023-02-18T02:46:04;95478.13;;;2.56;100.00
11878;BME280;5998;42.676;23.268;2023-02-18T02:48:43;95464.88;;;2.51;100.00
11878;BME280;5998;42.676;23.268;2023-02-18T02:51:15;95465.88;;;2.65;100.00
11878;BME280;5998;42.676;23.268;2023-02-18T02:53:45;95468.28;;;2.62;100.00
11878;BME280;5998;42.676;23.268;2023-02-18T02:56:14;95477.00;;;2.72;100.00
11878;BME280;5998;42.676;23.268;2023-02-18T02:58:41;95477.94;;;2.43;100.00
11878;BME280;5998;42.676;23.268;2023-02-18T03:01:19;95485.66;;;2.34;100.00
11878;BME280;5998;42.676;23.268;2023-02-18T03:04:00;95491.72;;;2.45;100.00
11878;BME280;5998;42.676;23.268;2023-02-18T03:06:42;95499.56;;;2.11;100.00
11878;BME280;5998;42.676;23.268;2023-02-18T03:09:16;95494.19;;;2.26;100.00
11878;BME280;5998;42.676;23.268;2023-02-18T03:11:51;95494.72;;;2.33;100.00
11878;BME280;5998;42.676;23.268;2023-02-18T03:14:26;95500.00;;;2.38;100.00
11878;BME280;5998;42.676;23.268;2023-02-18T03:16:58;95496.28;;;2.39;100.00
11878;BME280;5998;42.676;23.268;2023-02-18T03:19:29;95462.13;;;2.02;100.00
11878;BME280;5998;42.676;23.268;2023-02-18T03:22:00;95485.44;;;2.20;100.00
11878;BME280;5998;42.676;23.268;2023-02-18T03:24:32;95494.44;;;2.34;100.00
11878;BME280;5998;42.676;23.268;2023-02-18T03:27:04;95500.84;;;2.23;100.00
11878;BME280;5998;42.676;23.268;2023-02-18T03:29:33;95508.53;;;2.35;100.00
11878;BME280;5998;42.676;23.268;2023-02-18T03:32:05;95492.16;;;1.98;100.00
11878;BME280;5998;42.676;23.268;2023-02-18T03:34:36;95523.97;;;2.18;100.00
11878;BME280;5998;42.676;23.268;2023-02-18T03:37:07;95524.25;;;2.06;100.00
11878;BME280;5998;42.676;23.268;2023-02-18T03:39:36;95527.22;;;1.79;100.00
11878;BME280;5998;42.676;23.268;2023-02-18T03:42:04;95530.13;;;1.93;100.00
11878;BME280;5998;42.676;23.268;2023-02-18T03:44:31;95530.13;;;1.93;100.00
11878;BME280;5998;42.676;23.268;2023-02-18T03:46:58;95540.22;;;1.91;100.00
11878;BME280;5998;42.676;23.268;2023-02-18T03:49:25;95538.91;;;1.94;100.00
11878;BME280;5998;42.676;23.268;2023-02-18T03:51:52;95541.00;;;2.02;100.00
11878;BME280;5998;42.676;23.268;2023-02-18T03:54:20;95546.84;;;1.99;100.00
11878;BME280;5998;42.676;23.268;2023-02-18T03:56:47;95548.19;;;1.96;100.00
11878;BME280;5998;42.676;23.268;2023-02-18T03:59:14;95542.34;;;1.99;100.00
11878;BME280;5998;42.676;23.268;2023-02-18T04:01:40;95546.31;;;2.02;100.00
11878;BME280;5998;42.676;23.268;2023-02-18T04:04:07;95535.69;;;2.07;100.00
11878;BME280;5998;42.676;23.268;2023-02-18T04:06:34;95534.63;;;2.13;100.00
11878;BME280;5998;42.676;23.268;2023-02-18T04:09:01;95530.88;;;2.19;100.00
11878;BME280;5998;42.676;23.268;2023-02-18T04:11:34;95516.81;;;2.18;100.00
11878;BME280;5998;42.676;23.268;2023-02-18T04:14:01;95518.38;;;2.29;100.00
11878;BME280;5998;42.676;23.268;2023-02-18T04:16:28;95524.47;;;2.35;100.00
11878;BME280;5998;42.676;23.268;2023-02-18T04:18:54;95491.84;;;2.19;100.00
11878;BME280;5998;42.676;23.268;2023-02-18T04:21:21;95515.19;;;2.32;100.00
11878;BME280;5998;42.676;23.268;2023-02-18T04:23:48;95508.03;;;2.28;100.00
11878;BME280;5998;42.676;23.268;2023-02-18T04:26:14;95482.84;;;2.00;100.00
11878;BME280;5998;42.676;23.268;2023-02-18T04:28:42;95508.78;;;2.28;100.00
11878;BME280;5998;42.676;23.268;2023-02-18T04:31:09;95493.69;;;2.24;100.00
11878;BME280;5998;42.676;23.268;2023-02-18T04:33:36;95492.91;;;2.18;100.00
11878;BME280;5998;42.676;23.268;2023-02-18T04:36:03;95494.25;;;2.11;100.00
11878;BME280;5998;42.676;23.268;2023-02-18T04:38:30;95494.81;;;1.93;100.00
11878;BME280;5998;42.676;23.268;2023-02-18T04:40:57;95501.69;;;1.99;100.00
11878;BME280;5998;42.676;23.268;2023-02-18T04:43:23;95497.47;;;2.03;100.00
11878;BME280;5998;42.676;23.268;2023-02-18T04:45:51;95509.94;;;2.02;100.00
11878;BME280;5998;42.676;23.268;2023-02-18T04:48:18;95501.19;;;1.92;100.00
11878;BME280;5998;42.676;23.268;2023-02-18T04:50:45;95513.16;;;1.79;100.00
11878;BME280;5998;42.676;23.268;2023-02-18T04:53:11;95496.72;;;1.47;100.00
11878;BME280;5998;42.676;23.268;2023-02-18T04:55:38;95513.94;;;1.79;100.00
11878;BME280;5998;42.676;23.268;2023-02-18T04:58:05;95515.25;;;1.87;100.00
11878;BME280;5998;42.676;23.268;2023-02-18T05:00:34;95512.34;;;1.94;100.00
11878;BME280;5998;42.676;23.268;2023-02-18T05:03:02;95521.91;;;1.85;100.00
11878;BME280;5998;42.676;23.268;2023-02-18T05:05:29;95538.38;;;1.87;100.00
11878;BME280;5998;42.676;23.268;2023-02-18T05:07:55;95540.50;;;1.79;100.00
11878;BME280;5998;42.676;23.268;2023-02-18T05:10:22;95541.81;;;1.82;100.00
11878;BME280;5998;42.676;23.268;2023-02-18T05:12:49;95543.16;;;2.00;100.00
11878;BME280;5998;42.676;23.268;2023-02-18T05:15:16;95548.94;;;2.12;100.00
11878;BME280;5998;42.676;23.268;2023-02-18T05:17:43;95534.09;;;2.11;100.00
11878;BME280;5998;42.676;23.268;2023-02-18T05:20:11;95518.16;;;2.01;100.00
11878;BME280;5998;42.676;23.268;2023-02-18T05:22:38;95526.91;;;2.16;100.00
11878;BME280;5998;42.676;23.268;2023-02-18T05:25:05;95517.03;;;2.32;100.00
11878;BME280;5998;42.676;23.268;2023-02-18T05:27:32;95501.09;;;2.27;100.00
11878;BME280;5998;42.676;23.268;2023-02-18T05:29:59;95515.97;;;2.33;100.00
11878;BME280;5998;42.676;23.268;2023-02-18T05:32:25;95518.34;;;2.34;100.00
11878;BME280;5998;42.676;23.268;2023-02-18T05:34:52;95508.25;;;2.36;100.00
11878;BME280;5998;42.676;23.268;2023-02-18T05:37:20;95500.28;;;2.42;100.00
11878;BME280;5998;42.676;23.268;2023-02-18T05:39:47;95503.66;;;2.57;100.00
11878;BME280;5998;42.676;23.268;2023-02-18T05:42:14;95512.13;;;2.64;100.00
11878;BME280;5998;42.676;23.268;2023-02-18T05:44:40;95516.94;;;2.57;100.00
11878;BME280;5998;42.676;23.268;2023-02-18T05:47:09;95504.25;;;2.39;100.00
11878;BME280;5998;42.676;23.268;2023-02-18T05:49:36;95504.47;;;2.53;100.00
11878;BME280;5998;42.676;23.268;2023-02-18T05:52:04;95523.31;;;2.66;100.00
11878;BME280;5998;42.676;23.268;2023-02-18T05:54:32;95527.53;;;2.67;100.00
11878;BME280;5998;42.676;23.268;2023-02-18T05:56:59;95530.25;;;2.57;100.00
11878;BME280;5998;42.676;23.268;2023-02-18T05:59:26;95498.50;;;2.07;100.00
11878;BME280;5998;42.676;23.268;2023-02-18T06:01:54;95540.13;;;2.47;100.00
11878;BME280;5998;42.676;23.268;2023-02-18T06:04:20;95544.06;;;2.59;100.00
11878;BME280;5998;42.676;23.268;2023-02-18T06:06:47;95548.00;;;2.72;100.00
11878;BME280;5998;42.676;23.268;2023-02-18T06:09:14;95543.13;;;2.89;100.00
11878;BME280;5998;42.676;23.268;2023-02-18T06:11:42;95517.63;;;2.88;100.00
11878;BME280;5998;42.676;23.268;2023-02-18T06:14:09;95509.34;;;2.89;100.00
11878;BME280;5998;42.676;23.268;2023-02-18T06:16:35;95539.78;;;3.17;100.00
11878;BME280;5998;42.676;23.268;2023-02-18T06:19:02;95546.94;;;3.22;100.00
11878;BME280;5998;42.676;23.268;2023-02-18T06:21:29;95520.59;;;3.25;100.00
11878;BME280;5998;42.676;23.268;2023-02-18T06:23:56;95526.13;;;3.34;100.00
11878;BME280;5998;42.676;23.268;2023-02-18T06:26:23;95527.94;;;3.38;100.00
11878;BME280;5998;42.676;23.268;2023-02-18T06:28:51;95522.31;;;3.45;100.00
11878;BME280;5998;42.676;23.268;2023-02-18T06:31:18;95525.38;;;3.62;100.00
11878;BME280;5998;42.676;23.268;2023-02-18T06:33:44;95491.22;;;3.69;100.00
11878;BME280;5998;42.676;23.268;2023-02-18T06:36:11;95521.31;;;3.98;100.00
11878;BME280;5998;42.676;23.268;2023-02-18T06:38:40;95509.47;;;4.14;100.00
11878;BME280;5998;42.676;23.268;2023-02-18T06:41:07;95514.88;;;4.33;100.00
11878;BME280;5998;42.676;23.268;2023-02-18T06:43:34;95518.16;;;4.49;100.00
11878;BME280;5998;42.676;23.268;2023-02-18T06:46:03;95507.09;;;4.60;100.00
11878;BME280;5998;42.676;23.268;2023-02-18T06:48:30;95515.34;;;4.64;100.00
11878;BME280;5998;42.676;23.268;2023-02-18T06:50:57;95510.84;;;4.83;100.00
11878;BME280;5998;42.676;23.268;2023-02-18T06:53:24;95505.59;;;4.97;100.00
11878;BME280;5998;42.676;23.268;2023-02-18T06:55:51;95510.19;;;4.91;100.00
11878;BME280;5998;42.676;23.268;2023-02-18T06:58:18;95492.97;;;5.02;100.00
11878;BME280;5998;42.676;23.268;2023-02-18T07:00:45;95516.38;;;4.87;100.00
11878;BME280;5998;42.676;23.268;2023-02-18T07:03:13;95518.06;;;5.01;100.00
11878;BME280;5998;42.676;23.268;2023-02-18T07:05:40;95515.47;;;4.96;100.00
11878;BME280;5998;42.676;23.268;2023-02-18T07:08:07;95506.38;;;5.16;100.00
11878;BME280;5998;42.676;23.268;2023-02-18T07:10:34;95514.09;;;5.36;100.00
11878;BME280;5998;42.676;23.268;2023-02-18T07:13:01;95498.00;;;5.22;100.00
11878;BME280;5998;42.676;23.268;2023-02-18T07:15:28;95491.59;;;5.23;100.00
11878;BME280;5998;42.676;23.268;2023-02-18T07:17:54;95489.78;;;5.38;100.00
11878;BME280;5998;42.676;23.268;2023-02-18T07:20:23;95488.69;;;5.57;100.00
11878;BME280;5998;42.676;23.268;2023-02-18T07:22:51;95490.97;;;5.64;100.00
11878;BME280;5998;42.676;23.268;2023-02-18T07:25:17;95486.88;;;5.53;100.00
11878;BME280;5998;42.676;23.268;2023-02-18T07:27:44;95483.53;;;5.61;100.00
11878;BME280;5998;42.676;23.268;2023-02-18T07:30:12;95455.78;;;5.43;100.00
11878;BME280;5998;42.676;23.268;2023-02-18T07:32:38;95480.28;;;5.13;100.00
11878;BME280;5998;42.676;23.268;2023-02-18T07:35:06;95494.34;;;5.18;100.00
11878;BME280;5998;42.676;23.268;2023-02-18T07:37:34;95493.47;;;5.23;100.00
11878;BME280;5998;42.676;23.268;2023-02-18T07:40:00;95505.88;;;5.51;100.00
11878;BME280;5998;42.676;23.268;2023-02-18T07:42:27;95492.47;;;5.70;100.00
11878;BME280;5998;42.676;23.268;2023-02-18T07:44:54;95509.69;;;5.96;100.00
11878;BME280;5998;42.676;23.268;2023-02-18T07:47:20;95528.56;;;6.18;100.00
11878;BME280;5998;42.676;23.268;2023-02-18T07:49:47;95528.69;;;6.27;100.00
11878;BME280;5998;42.676;23.268;2023-02-18T07:52:14;95520.63;;;6.59;100.00
11878;BME280;5998;42.676;23.268;2023-02-18T07:54:43;95529.25;;;6.70;100.00
11878;BME280;5998;42.676;23.268;2023-02-18T07:57:10;95531.13;;;6.96;100.00
11878;BME280;5998;42.676;23.268;2023-02-18T07:59:36;95524.50;;;7.30;100.00
11878;BME280;5998;42.676;23.268;2023-02-18T08:02:03;95519.31;;;7.47;100.00
11878;BME280;5998;42.676;23.268;2023-02-18T08:04:32;95505.31;;;7.72;100.00
11878;BME280;5998;42.676;23.268;2023-02-18T08:06:58;95508.59;;;7.91;100.00
11878;BME280;5998;42.676;23.268;2023-02-18T08:09:25;95506.66;;;8.05;94.92
11878;BME280;5998;42.676;23.268;2023-02-18T08:11:53;95517.75;;;7.68;89.29
11878;BME280;5998;42.676;23.268;2023-02-18T08:14:20;95514.16;;;7.95;89.54
11878;BME280;5998;42.676;23.268;2023-02-18T08:16:46;95508.66;;;8.00;87.59
11878;BME280;5998;42.676;23.268;2023-02-18T08:19:13;95509.84;;;8.16;87.96
11878;BME280;5998;42.676;23.268;2023-02-18T08:21:40;95502.19;;;8.23;86.12
11878;BME280;5998;42.676;23.268;2023-02-18T08:24:06;95499.00;;;8.43;85.03
11878;BME280;5998;42.676;23.268;2023-02-18T08:26:33;95478.22;;;8.57;86.63
11878;BME280;5998;42.676;23.268;2023-02-18T08:29:01;95473.63;;;8.58;85.61
11878;BME280;5998;42.676;23.268;2023-02-18T08:31:29;95470.03;;;8.71;84.18
11878;BME280;5998;42.676;23.268;2023-02-18T08:33:57;95480.44;;;8.64;82.43
11878;BME280;5998;42.676;23.268;2023-02-18T08:36:25;95489.75;;;8.58;81.30
11878;BME280;5998;42.676;23.268;2023-02-18T08:38:52;95486.47;;;8.30;83.25
11878;BME280;5998;42.676;23.268;2023-02-18T08:41:19;95483.91;;;8.03;85.45
11878;BME280;5998;42.676;23.268;2023-02-18T08:43:46;95468.09;;;8.23;85.46
11878;BME280;5998;42.676;23.268;2023-02-18T08:46:15;95460.69;;;8.51;85.13
11878;BME280;5998;42.676;23.268;2023-02-18T08:48:42;95473.53;;;8.71;87.87
11878;BME280;5998;42.676;23.268;2023-02-18T08:51:11;95472.50;;;8.50;85.05
11878;BME280;5998;42.676;23.268;2023-02-18T08:53:38;95466.22;;;8.63;88.48
11878;BME280;5998;42.676;23.268;2023-02-18T08:56:06;95484.38;;;9.06;84.62
11878;BME280;5998;42.676;23.268;2023-02-18T08:58:33;95495.31;;;9.35;83.25
11878;BME280;5998;42.676;23.268;2023-02-18T09:01:02;95498.59;;;9.23;81.13
11878;BME280;5998;42.676;23.268;2023-02-18T09:03:31;95488.03;;;9.35;80.97
11878;BME280;5998;42.676;23.268;2023-02-18T09:05:58;95484.09;;;9.59;83.07
11878;BME280;5998;42.676;23.268;2023-02-18T09:08:25;95488.53;;;9.80;81.95
11878;BME280;5998;42.676;23.268;2023-02-18T09:10:54;95498.50;;;9.80;76.67
11878;BME280;5998;42.676;23.268;2023-02-18T09:13:22;95498.78;;;9.87;77.50
11878;BME280;5998;42.676;23.268;2023-02-18T09:15:55;95480.25;;;10.20;77.16
11878;BME280;5998;42.676;23.268;2023-02-18T09:18:23;95479.56;;;10.40;76.59
11878;BME280;5998;42.676;23.268;2023-02-18T09:20:51;95484.41;;;10.55;75.55
11878;BME280;5998;42.676;23.268;2023-02-18T09:23:21;95494.06;;;10.64;72.32
11878;BME280;5998;42.676;23.268;2023-02-18T09:25:47;95470.56;;;10.74;70.23
11878;BME280;5998;42.676;23.268;2023-02-18T09:28:14;95477.25;;;10.97;69.72
11878;BME280;5998;42.676;23.268;2023-02-18T09:30:41;95476.47;;;11.25;68.28
11878;BME280;5998;42.676;23.268;2023-02-18T09:33:07;95454.25;;;11.29;64.70
11878;BME280;5998;42.676;23.268;2023-02-18T09:35:38;95464.09;;;11.66;65.25
11878;BME280;5998;42.676;23.268;2023-02-18T09:38:06;95458.97;;;11.94;63.31
11878;BME280;5998;42.676;23.268;2023-02-18T09:40:34;95449.56;;;12.12;62.36
11878;BME280;5998;42.676;23.268;2023-02-18T09:43:03;95451.28;;;12.28;61.39
11878;BME280;5998;42.676;23.268;2023-02-18T09:45:30;95459.06;;;12.30;59.37
11878;BME280;5998;42.676;23.268;2023-02-18T09:47:58;95462.13;;;12.40;58.62
11878;BME280;5998;42.676;23.268;2023-02-18T09:50:29;95453.84;;;12.13;58.90
11878;BME280;5998;42.676;23.268;2023-02-18T09:52:58;95455.97;;;12.07;57.85
11878;BME280;5998;42.676;23.268;2023-02-18T09:55:29;95442.81;;;12.06;58.37
11878;BME280;5998;42.676;23.268;2023-02-18T09:57:58;95435.94;;;12.65;63.39
11878;BME280;5998;42.676;23.268;2023-02-18T10:00:30;95434.03;;;12.66;58.58
11878;BME280;5998;42.676;23.268;2023-02-18T10:03:01;95427.81;;;12.89;67.55
11878;BME280;5998;42.676;23.268;2023-02-18T10:05:30;95411.22;;;13.27;58.78
11878;BME280;5998;42.676;23.268;2023-02-18T10:08:01;95415.06;;;13.94;63.09
11878;BME280;5998;42.676;23.268;2023-02-18T10:10:36;95419.63;;;14.33;57.21
11878;BME280;5998;42.676;23.268;2023-02-18T10:13:05;95414.59;;;14.98;57.88
11878;BME280;5998;42.676;23.268;2023-02-18T10:15:33;95414.94;;;15.12;51.64
11878;BME280;5998;42.676;23.268;2023-02-18T10:18:01;95416.84;;;15.27;49.71
11878;BME280;5998;42.676;23.268;2023-02-18T10:20:30;95422.03;;;15.35;50.27
11878;BME280;5998;42.676;23.268;2023-02-18T10:23:00;95426.31;;;15.52;48.34
11878;BME280;5998;42.676;23.268;2023-02-18T10:25:32;95416.63;;;15.70;46.45
11878;BME280;5998;42.676;23.268;2023-02-18T10:28:02;95408.81;;;15.88;46.84
11878;BME280;5998;42.676;23.268;2023-02-18T10:30:32;95390.75;;;15.96;46.47
11878;BME280;5998;42.676;23.268;2023-02-18T10:33:17;95403.69;;;16.25;44.86
11878;BME280;5998;42.676;23.268;2023-02-18T10:35:51;95414.88;;;16.20;44.76
11878;BME280;5998;42.676;23.268;2023-02-18T10:38:28;95406.44;;;16.47;46.81
11878;BME280;5998;42.676;23.268;2023-02-18T10:41:06;95376.88;;;16.46;44.25
11878;BME280;5998;42.676;23.268;2023-02-18T10:43:44;95391.50;;;16.83;43.22
11878;BME280;5998;42.676;23.268;2023-02-18T10:46:18;95380.63;;;17.09;45.26
11878;BME280;5998;42.676;23.268;2023-02-18T10:48:57;95381.31;;;16.54;43.05
11878;BME280;5998;42.676;23.268;2023-02-18T10:51:32;95374.72;;;17.04;49.60
11878;BME280;5998;42.676;23.268;2023-02-18T10:54:00;95354.88;;;17.30;38.35
11878;BME280;5998;42.676;23.268;2023-02-18T10:56:37;95368.75;;;17.81;46.82
11878;BME280;5998;42.676;23.268;2023-02-18T10:59:09;95339.97;;;17.83;54.21
11878;BME280;5998;42.676;23.268;2023-02-18T11:01:36;95359.38;;;17.48;35.25
11878;BME280;5998;42.676;23.268;2023-02-18T11:04:06;95362.34;;;16.84;36.22
11878;BME280;5998;42.676;23.268;2023-02-18T11:06:38;95356.81;;;16.77;38.17
11878;BME280;5998;42.676;23.268;2023-02-18T11:09:06;95335.47;;;16.79;40.33
11878;BME280;5998;42.676;23.268;2023-02-18T11:11:38;95346.44;;;17.12;39.73
11878;BME280;5998;42.676;23.268;2023-02-18T11:14:07;95337.63;;;17.19;37.00
11878;BME280;5998;42.676;23.268;2023-02-18T11:16:38;95347.56;;;17.37;36.84
11878;BME280;5998;42.676;23.268;2023-02-18T11:19:30;95331.38;;;17.48;38.40
11878;BME280;5998;42.676;23.268;2023-02-18T11:22:07;95315.50;;;17.24;34.08
11878;BME280;5998;42.676;23.268;2023-02-18T11:24:38;95330.78;;;17.32;36.77
11878;BME280;5998;42.676;23.268;2023-02-18T11:27:09;95325.34;;;17.32;34.86
11878;BME280;5998;42.676;23.268;2023-02-18T11:29:37;95308.75;;;17.14;33.88
11878;BME280;5998;42.676;23.268;2023-02-18T11:32:09;95306.75;;;16.81;33.33
11878;BME280;5998;42.676;23.268;2023-02-18T11:34:41;95300.38;;;16.70;34.10
11878;BME280;5998;42.676;23.268;2023-02-18T11:37:14;95296.78;;;16.89;33.15
11878;BME280;5998;42.676;23.268;2023-02-18T11:39:44;95284.75;;;16.64;33.19
11878;BME280;5998;42.676;23.268;2023-02-18T11:42:15;95278.94;;;16.65;33.28
11878;BME280;5998;42.676;23.268;2023-02-18T11:44:49;95278.41;;;16.82;33.08
11878;BME280;5998;42.676;23.268;2023-02-18T11:47:23;95285.28;;;16.73;33.91
11878;BME280;5998;42.676;23.268;2023-02-18T11:50:03;95283.66;;;16.94;33.64
11878;BME280;5998;42.676;23.268;2023-02-18T11:52:38;95279.53;;;17.07;33.33
11878;BME280;5998;42.676;23.268;2023-02-18T11:55:07;95273.38;;;16.84;33.53
11878;BME280;5998;42.676;23.268;2023-02-18T11:57:42;95268.47;;;16.93;33.81
11878;BME280;5998;42.676;23.268;2023-02-18T12:00:16;95261.28;;;17.08;33.90
11878;BME280;5998;42.676;23.268;2023-02-18T12:02:46;95263.75;;;17.20;33.44
11878;BME280;5998;42.676;23.268;2023-02-18T12:05:15;95237.69;;;17.19;33.46
11878;BME280;5998;42.676;23.268;2023-02-18T12:07:46;95258.31;;;17.20;33.27
11878;BME280;5998;42.676;23.268;2023-02-18T12:10:22;95256.53;;;17.01;33.65
11878;BME280;5998;42.676;23.268;2023-02-18T12:12:55;95255.03;;;17.07;33.61
11878;BME280;5998;42.676;23.268;2023-02-18T12:15:33;95245.13;;;17.22;33.51
11878;BME280;5998;42.676;23.268;2023-02-18T12:18:26;95257.28;;;17.32;33.94
11878;BME280;5998;42.676;23.268;2023-02-18T12:24:02;95252.13;;;17.23;34.05
11878;BME280;5998;42.676;23.268;2023-02-18T12:26:39;95256.91;;;17.33;33.71
11878;BME280;5998;42.676;23.268;2023-02-18T12:29:22;95243.16;;;17.23;34.23
11878;BME280;5998;42.676;23.268;2023-02-18T12:32:02;95242.09;;;17.31;34.57
11878;BME280;5998;42.676;23.268;2023-02-18T12:34:53;95235.13;;;17.33;33.57
11878;BME280;5998;42.676;23.268;2023-02-18T12:37:46;95224.94;;;17.27;34.11
11878;BME280;5998;42.676;23.268;2023-02-18T12:43:16;95229.59;;;17.26;34.21
11878;BME280;5998;42.676;23.268;2023-02-18T12:46:01;95200.97;;;17.06;33.90
11878;BME280;5998;42.676;23.268;2023-02-18T12:48:48;95214.19;;;17.04;34.61
11878;BME280;5998;42.676;23.268;2023-02-18T12:51:25;95209.97;;;17.10;34.52
11878;BME280;5998;42.676;23.268;2023-02-18T13:00:12;95211.75;;;17.29;34.57
11878;BME280;5998;42.676;23.268;2023-02-18T13:03:00;95200.66;;;17.48;34.46
11878;BME280;5998;42.676;23.268;2023-02-18T13:05:37;95206.94;;;17.52;34.83
11878;BME280;5998;42.676;23.268;2023-02-18T13:08:27;95199.38;;;17.35;34.35
11878;BME280;5998;42.676;23.268;2023-02-18T13:11:09;95205.50;;;17.28;35.13
11878;BME280;5998;42.676;23.268;2023-02-18T13:13:44;95215.53;;;17.21;35.26
11878;BME280;5998;42.676;23.268;2023-02-18T13:16:15;95207.09;;;17.29;35.01
11878;BME280;5998;42.676;23.268;2023-02-18T13:18:55;95221.44;;;17.26;35.25
11878;BME280;5998;42.676;23.268;2023-02-18T13:21:25;95215.16;;;17.19;35.11
11878;BME280;5998;42.676;23.268;2023-02-18T13:23:56;95204.94;;;17.12;35.39
11878;BME280;5998;42.676;23.268;2023-02-18T13:26:24;95205.41;;;17.18;35.38
11878;BME280;5998;42.676;23.268;2023-02-18T13:28:57;95192.88;;;17.09;35.38
11878;BME280;5998;42.676;23.268;2023-02-18T13:31:39;95213.72;;;16.98;35.98
11878;BME280;5998;42.676;23.268;2023-02-18T13:34:16;95206.28;;;16.92;36.31